createdAt,value
2018-12-08T00:00:19.244Z,8.20
2018-12-08T00:02:46.756Z,8.30
2018-12-08T00:05:14.281Z,8.20
2018-12-08T00:07:41.741Z,8.20
2018-12-08T00:10:09.313Z,8.20
2018-12-08T00:12:36.872Z,8.20
2018-12-08T00:15:04.675Z,8.20
2018-12-08T00:17:32.211Z,8.20
2018-12-08T00:19:59.670Z,8.20
2018-12-08T00:22:27.129Z,8.30
2018-12-08T00:24:54.597Z,8.30
2018-12-08T00:27:22.064Z,8.30
2018-12-08T00:29:49.503Z,8.30
2018-12-08T00:32:16.976Z,8.30
2018-12-08T00:34:44.511Z,8.30
2018-12-08T00:37:12.010Z,8.30
2018-12-08T00:39:39.564Z,8.30
2018-12-08T00:42:07.028Z,8.40
2018-12-08T00:44:34.583Z,8.40
2018-12-08T00:47:02.048Z,8.40
2018-12-08T00:49:29.513Z,8.40
2018-12-08T00:51:56.971Z,8.40
2018-12-08T00:54:24.441Z,8.40
2018-12-08T00:56:51.901Z,8.40
2018-12-08T00:59:19.456Z,8.40
2018-12-08T01:01:46.916Z,8.30
2018-12-08T01:04:14.388Z,8.30
2018-12-08T01:06:41.844Z,8.30
2018-12-08T01:09:09.416Z,8.20
2018-12-08T01:11:36.973Z,8.20
2018-12-08T01:14:04.535Z,8.20
2018-12-08T01:16:32.001Z,8.20
2018-12-08T01:18:59.465Z,8.20
2018-12-08T01:21:26.900Z,8.10
2018-12-08T01:23:54.381Z,8.10
2018-12-08T01:26:21.840Z,8.10
2018-12-08T01:28:49.305Z,8.10
2018-12-08T01:31:16.740Z,8.10
2018-12-08T01:33:44.224Z,8.10
2018-12-08T01:36:11.701Z,8.10
2018-12-08T01:38:39.252Z,8.20
2018-12-08T01:41:06.820Z,8.20
2018-12-08T01:43:34.284Z,8.20
2018-12-08T01:46:01.728Z,8.20
2018-12-08T01:48:29.149Z,8.20
2018-12-08T01:50:56.659Z,8.20
2018-12-08T01:53:24.128Z,8.20
2018-12-08T01:55:51.693Z,8.20
2018-12-08T01:58:19.125Z,8.30
2018-12-08T02:00:46.555Z,8.30
2018-12-08T02:03:14.088Z,8.20
2018-12-08T02:05:41.507Z,8.20
2018-12-08T02:08:09.100Z,8.20
2018-12-08T02:10:36.560Z,8.20
2018-12-08T02:13:04.019Z,8.10
2018-12-08T02:15:31.495Z,8.10
2018-12-08T02:17:59.048Z,8.10
2018-12-08T02:20:26.508Z,8.10
2018-12-08T02:22:54.176Z,8.20
2018-12-08T02:25:21.659Z,8.20
2018-12-08T02:27:49.200Z,8.10
2018-12-08T02:30:16.762Z,8.10
2018-12-08T02:32:44.224Z,8.10
2018-12-08T02:35:11.692Z,8.10
2018-12-08T02:37:39.248Z,8.20
2018-12-08T02:40:07.319Z,8.20
2018-12-08T02:42:34.786Z,8.20
2018-12-08T02:45:02.257Z,8.20
2018-12-08T02:47:29.704Z,8.20
2018-12-08T02:49:57.169Z,8.20
2018-12-08T02:52:24.738Z,8.20
2018-12-08T02:54:52.191Z,8.20
2018-12-08T02:57:19.761Z,8.20
2018-12-08T02:59:47.217Z,8.10
2018-12-08T03:02:14.684Z,8.10
2018-12-08T03:04:42.121Z,8.20
2018-12-08T03:07:09.604Z,8.10
2018-12-08T03:09:37.071Z,8.10
2018-12-08T03:12:04.628Z,8.10
2018-12-08T03:14:32.093Z,8.10
2018-12-08T03:16:59.555Z,8.00
2018-12-08T03:19:27.013Z,8.10
2018-12-08T03:21:54.478Z,8.10
2018-12-08T03:24:21.936Z,8.20
2018-12-08T03:26:49.408Z,8.20
2018-12-08T03:29:16.864Z,8.20
2018-12-08T03:31:44.424Z,8.30
2018-12-08T03:34:11.959Z,8.30
2018-12-08T03:36:39.556Z,8.30
2018-12-08T03:39:07.465Z,8.30
2018-12-08T03:41:35.051Z,8.30
2018-12-08T03:44:02.656Z,8.40
2018-12-08T03:46:30.181Z,8.50
2018-12-08T03:48:57.677Z,8.50
2018-12-08T03:51:25.237Z,8.50
2018-12-08T03:53:52.713Z,8.50
2018-12-08T03:56:20.169Z,8.60
2018-12-08T03:58:47.732Z,8.60
2018-12-08T04:01:15.189Z,8.60
2018-12-08T04:03:42.757Z,8.60
2018-12-08T04:06:10.212Z,8.60
2018-12-08T04:08:37.658Z,8.60
2018-12-08T04:11:05.245Z,8.60
2018-12-08T04:13:32.768Z,8.60
2018-12-08T04:16:00.259Z,8.50
2018-12-08T04:18:27.724Z,8.50
2018-12-08T04:20:55.319Z,8.50
2018-12-08T04:23:22.852Z,8.50
2018-12-08T04:25:50.416Z,8.50
2018-12-08T04:28:17.889Z,8.60
2018-12-08T04:30:45.441Z,8.60
2018-12-08T04:33:12.913Z,8.60
2018-12-08T04:35:40.432Z,8.60
2018-12-08T04:38:08.013Z,8.60
2018-12-08T04:40:35.489Z,8.60
2018-12-08T04:43:03.048Z,8.50
2018-12-08T04:45:30.523Z,8.50
2018-12-08T04:47:57.975Z,8.50
2018-12-08T04:50:25.449Z,8.50
2018-12-08T04:52:52.899Z,8.50
2018-12-08T04:55:20.359Z,8.50
2018-12-08T04:57:47.824Z,8.50
2018-12-08T05:00:15.292Z,8.50
2018-12-08T05:02:42.853Z,8.60
2018-12-08T05:05:10.311Z,8.60
2018-12-08T05:07:37.767Z,8.60
2018-12-08T05:10:06.048Z,8.60
2018-12-08T05:12:33.611Z,8.70
2018-12-08T05:15:01.071Z,8.70
2018-12-08T05:17:28.536Z,8.60
2018-12-08T05:19:55.996Z,8.70
2018-12-08T05:22:23.558Z,8.70
2018-12-08T05:24:51.062Z,8.80
2018-12-08T05:27:18.580Z,8.80
2018-12-08T05:29:46.054Z,8.70
2018-12-08T05:32:13.512Z,8.80
2018-12-08T05:34:40.940Z,8.90
2018-12-08T05:37:08.438Z,8.90
2018-12-08T05:39:35.896Z,8.90
2018-12-08T05:42:03.396Z,8.90
2018-12-08T05:44:30.824Z,8.90
2018-12-08T05:46:58.280Z,8.90
2018-12-08T05:49:25.712Z,8.80
2018-12-08T05:51:53.204Z,8.80
2018-12-08T05:54:20.660Z,8.80
2018-12-08T05:56:48.129Z,8.80
2018-12-08T05:59:15.552Z,8.80
2018-12-08T06:01:43.253Z,8.80
2018-12-08T06:04:10.705Z,8.90
2018-12-08T06:06:38.183Z,8.90
2018-12-08T06:09:06.039Z,8.90
2018-12-08T06:11:33.500Z,8.90
2018-12-08T06:14:00.970Z,8.80
2018-12-08T06:16:28.428Z,8.80
2018-12-08T06:18:56.001Z,8.80
2018-12-08T06:21:32.152Z,8.80
2018-12-08T06:23:59.584Z,8.80
2018-12-08T06:26:27.185Z,8.90
2018-12-08T06:28:54.844Z,8.80
2018-12-08T06:31:22.273Z,8.80
2018-12-08T06:33:49.838Z,8.80
2018-12-08T06:36:17.332Z,8.80
2018-12-08T06:38:44.787Z,8.80
2018-12-08T06:41:12.212Z,8.90
2018-12-08T06:43:39.712Z,8.90
2018-12-08T06:46:07.276Z,8.90
2018-12-08T06:48:34.910Z,9.00
2018-12-08T06:51:02.511Z,9.10
2018-12-08T06:53:29.952Z,9.10
2018-12-08T06:55:57.533Z,9.10
2018-12-08T06:58:25.001Z,9.10
2018-12-08T07:00:52.470Z,9.10
2018-12-08T07:03:20.037Z,9.00
2018-12-08T07:05:47.485Z,9.00
2018-12-08T07:08:14.916Z,9.00
2018-12-08T07:10:42.508Z,9.00
2018-12-08T07:13:09.971Z,9.00
2018-12-08T07:15:37.550Z,9.00
2018-12-08T07:18:05.103Z,9.00
2018-12-08T07:20:32.628Z,8.90
2018-12-08T07:23:00.123Z,8.80
2018-12-08T07:25:27.588Z,8.80
2018-12-08T07:27:55.020Z,8.80
2018-12-08T07:30:22.508Z,8.70
2018-12-08T07:32:49.993Z,8.80
2018-12-08T07:35:17.427Z,8.80
2018-12-08T07:37:44.996Z,8.70
2018-12-08T07:40:12.561Z,8.70
2018-12-08T07:42:40.020Z,8.60
2018-12-08T07:45:07.479Z,8.60
2018-12-08T07:47:34.904Z,8.60
2018-12-08T07:50:02.509Z,8.60
2018-12-08T07:52:29.935Z,8.60
2018-12-08T07:54:57.424Z,8.60
2018-12-08T07:57:24.887Z,8.50
2018-12-08T07:59:52.350Z,8.60
2018-12-08T08:02:19.808Z,8.60
2018-12-08T08:04:47.271Z,8.60
2018-12-08T08:07:14.742Z,8.80
2018-12-08T08:09:42.295Z,8.90
2018-12-08T08:12:09.725Z,9.00
2018-12-08T08:14:37.224Z,8.90
2018-12-08T08:17:04.684Z,8.80
2018-12-08T08:19:32.148Z,8.70
2018-12-08T08:21:59.612Z,8.60
2018-12-08T08:24:27.084Z,8.60
2018-12-08T08:26:54.631Z,8.60
2018-12-08T08:29:22.064Z,8.60
2018-12-08T08:31:49.484Z,8.60
2018-12-08T08:34:17.021Z,8.60
2018-12-08T08:36:44.481Z,8.60
2018-12-08T08:39:11.940Z,8.60
2018-12-08T08:41:39.401Z,8.60
2018-12-08T08:44:06.868Z,8.60
2018-12-08T08:46:34.429Z,8.60
2018-12-08T08:49:01.884Z,8.70
2018-12-08T08:51:29.452Z,8.70
2018-12-08T08:53:57.011Z,8.70
2018-12-08T08:56:24.581Z,8.70
2018-12-08T08:58:52.040Z,8.70
2018-12-08T09:01:19.605Z,8.70
2018-12-08T09:03:47.060Z,8.70
2018-12-08T09:06:14.489Z,8.70
2018-12-08T09:08:42.088Z,8.70
2018-12-08T09:11:09.548Z,8.70
2018-12-08T09:13:37.020Z,8.70
2018-12-08T09:16:04.574Z,8.70
2018-12-08T09:18:32.036Z,8.70
2018-12-08T09:20:59.465Z,8.70
2018-12-08T09:23:26.964Z,8.70
2018-12-08T09:25:54.437Z,8.70
2018-12-08T09:28:22.092Z,8.80
2018-12-08T09:30:49.619Z,8.70
2018-12-08T09:33:17.116Z,8.70
2018-12-08T09:35:44.573Z,8.70
2018-12-08T09:38:12.012Z,8.70
2018-12-08T09:40:39.461Z,8.60
2018-12-08T09:43:06.956Z,8.60
2018-12-08T09:45:41.600Z,8.60
2018-12-08T09:48:03.933Z,8.70
2018-12-08T09:50:31.396Z,8.60
2018-12-08T09:53:10.804Z,8.60
2018-12-08T09:55:38.244Z,8.60
2018-12-08T09:58:05.748Z,8.60
2018-12-08T10:00:33.280Z,8.60
2018-12-08T10:03:00.780Z,8.70
2018-12-08T10:05:28.336Z,8.70
2018-12-08T10:07:55.817Z,8.80
2018-12-08T10:10:23.359Z,8.80
2018-12-08T10:12:50.827Z,8.80
2018-12-08T10:15:18.280Z,8.80
2018-12-08T10:17:45.747Z,8.80
2018-12-08T10:20:13.312Z,8.80
2018-12-08T10:22:40.769Z,8.80
2018-12-08T10:25:08.331Z,8.90
2018-12-08T10:27:35.923Z,8.90
2018-12-08T10:30:06.332Z,8.90
2018-12-08T10:32:34.001Z,8.90
2018-12-08T10:35:01.569Z,8.80
2018-12-08T10:37:29.122Z,8.80
2018-12-08T10:39:56.623Z,8.90
2018-12-08T10:42:24.144Z,8.90
2018-12-08T10:44:51.707Z,8.90
2018-12-08T10:47:19.180Z,8.90
2018-12-08T10:49:46.640Z,8.90
2018-12-08T10:52:14.291Z,8.90
2018-12-08T10:54:41.760Z,8.90
2018-12-08T10:57:09.255Z,9.00
2018-12-08T10:59:36.692Z,9.00
2018-12-08T11:02:04.182Z,9.00
2018-12-08T11:04:31.608Z,9.10
2018-12-08T11:06:59.072Z,9.10
2018-12-08T11:09:26.640Z,9.10
2018-12-08T11:11:54.084Z,9.20
2018-12-08T11:14:21.559Z,9.20
2018-12-08T11:16:49.017Z,9.20
2018-12-08T11:19:16.444Z,9.30
2018-12-08T11:21:43.920Z,9.30
2018-12-08T11:24:11.354Z,9.30
2018-12-08T11:26:38.867Z,9.30
2018-12-08T11:29:06.312Z,9.30
2018-12-08T11:31:33.788Z,9.30
2018-12-08T11:34:01.284Z,9.30
2018-12-08T11:36:28.896Z,9.30
2018-12-08T11:38:56.376Z,9.30
2018-12-08T11:41:23.936Z,9.30
2018-12-08T11:43:51.501Z,9.40
2018-12-08T11:46:18.976Z,9.40
2018-12-08T11:48:46.532Z,9.50
2018-12-08T11:51:13.997Z,9.40
2018-12-08T11:53:41.460Z,9.40
2018-12-08T11:56:08.912Z,9.40
2018-12-08T11:58:36.344Z,9.50
2018-12-08T12:01:03.888Z,9.60
2018-12-08T12:03:31.395Z,9.60
2018-12-08T12:05:58.969Z,9.70
2018-12-08T12:08:26.392Z,9.70
2018-12-08T12:10:53.872Z,9.70
2018-12-08T12:13:21.296Z,9.70
2018-12-08T12:15:48.804Z,9.70
2018-12-08T12:18:16.236Z,9.80
2018-12-08T12:20:43.706Z,9.80
2018-12-08T12:23:11.187Z,9.80
2018-12-08T12:25:38.660Z,9.80
2018-12-08T12:28:06.439Z,9.90
2018-12-08T12:30:33.987Z,9.90
2018-12-08T12:33:01.459Z,10.00
2018-12-08T12:35:28.928Z,10.00
2018-12-08T12:37:56.371Z,10.00
2018-12-08T12:40:23.931Z,10.00
2018-12-08T12:42:51.500Z,10.00
2018-12-08T12:45:19.076Z,10.00
2018-12-08T12:47:46.521Z,10.00
2018-12-08T12:50:14.113Z,10.00
2018-12-08T12:52:41.652Z,10.10
2018-12-08T12:55:09.113Z,10.10
2018-12-08T12:57:36.544Z,10.10
2018-12-08T13:00:06.853Z,10.10
2018-12-08T13:02:34.368Z,10.20
2018-12-08T13:05:01.800Z,10.20
2018-12-08T13:07:29.287Z,10.20
2018-12-08T13:09:56.744Z,10.10
2018-12-08T13:12:24.419Z,10.10
2018-12-08T13:14:51.844Z,10.10
2018-12-08T13:17:19.284Z,10.10
2018-12-08T13:19:46.719Z,10.00
2018-12-08T13:22:14.256Z,10.00
2018-12-08T13:24:41.725Z,10.00
2018-12-08T13:27:09.290Z,10.00
2018-12-08T13:29:36.844Z,10.00
2018-12-08T13:32:04.409Z,9.90
2018-12-08T13:34:31.846Z,9.90
2018-12-08T13:36:59.340Z,9.80
2018-12-08T13:39:26.793Z,9.80
2018-12-08T13:41:54.249Z,9.70
2018-12-08T13:44:35.109Z,9.70
2018-12-08T13:47:03.052Z,9.70
2018-12-08T13:49:30.560Z,9.70
2018-12-08T13:51:58.020Z,9.70
2018-12-08T13:54:37.572Z,9.70
2018-12-08T13:57:05.125Z,9.80
2018-12-08T13:59:32.548Z,9.80
2018-12-08T14:02:00.044Z,9.80
2018-12-08T14:04:27.505Z,9.80
2018-12-08T14:06:54.972Z,9.70
2018-12-08T14:09:22.395Z,9.80
2018-12-08T14:11:49.889Z,9.80
2018-12-08T14:14:17.350Z,9.80
2018-12-08T14:16:44.912Z,9.70
2018-12-08T14:19:12.446Z,9.70
2018-12-08T14:21:39.946Z,9.70
2018-12-08T14:24:07.371Z,9.60
2018-12-08T14:26:34.867Z,9.60
2018-12-08T14:29:02.425Z,9.60
2018-12-08T14:31:30.097Z,9.70
2018-12-08T14:33:57.767Z,9.60
2018-12-08T14:36:25.220Z,9.70
2018-12-08T14:38:57.473Z,9.70
2018-12-08T14:41:22.304Z,9.80
2018-12-08T14:43:49.763Z,9.80
2018-12-08T14:46:17.328Z,9.80
2018-12-08T14:48:44.780Z,9.80
2018-12-08T14:51:12.240Z,9.80
2018-12-08T14:53:39.699Z,9.80
2018-12-08T14:56:07.156Z,9.80
2018-12-08T14:58:34.601Z,9.90
2018-12-08T15:01:02.088Z,9.90
2018-12-08T15:03:29.553Z,9.90
2018-12-08T15:05:57.008Z,9.90
2018-12-08T15:08:24.473Z,9.90
2018-12-08T15:10:52.041Z,9.90
2018-12-08T15:13:19.508Z,9.80
2018-12-08T15:15:47.072Z,9.80
2018-12-08T15:18:14.521Z,9.80
2018-12-08T15:20:41.985Z,9.80
2018-12-08T15:23:09.543Z,9.80
2018-12-08T15:25:37.015Z,9.80
2018-12-08T15:28:04.469Z,9.80
2018-12-08T15:30:31.933Z,9.80
2018-12-08T15:32:59.392Z,9.70
2018-12-08T15:35:26.956Z,9.70
2018-12-08T15:37:54.418Z,9.80
2018-12-08T15:40:21.880Z,9.80
2018-12-08T15:42:49.376Z,9.80
2018-12-08T15:45:16.976Z,9.80
2018-12-08T15:47:44.779Z,9.80
2018-12-08T15:50:12.343Z,9.80
2018-12-08T15:52:41.005Z,9.80
2018-12-08T15:55:08.593Z,9.80
2018-12-08T15:57:36.100Z,9.90
2018-12-08T16:00:06.385Z,9.90
2018-12-08T16:02:33.847Z,9.90
2018-12-08T16:05:01.308Z,9.90
2018-12-08T16:07:28.864Z,9.90
2018-12-08T16:09:56.322Z,9.90
2018-12-08T16:12:23.795Z,9.90
2018-12-08T16:14:51.837Z,9.90
2018-12-08T16:17:19.328Z,10.00
2018-12-08T16:19:46.760Z,10.00
2018-12-08T16:22:14.252Z,10.00
2018-12-08T16:24:41.724Z,10.00
2018-12-08T16:27:09.272Z,10.00
2018-12-08T16:29:36.753Z,10.00
2018-12-08T16:32:04.196Z,10.00
2018-12-08T16:34:31.676Z,10.00
2018-12-08T16:36:59.124Z,10.00
2018-12-08T16:39:26.684Z,10.00
2018-12-08T16:41:54.152Z,10.00
2018-12-08T16:44:21.712Z,10.10
2018-12-08T16:46:49.277Z,10.10
2018-12-08T16:49:16.716Z,10.10
2018-12-08T16:51:44.280Z,10.10
2018-12-08T16:54:11.831Z,10.10
2018-12-08T16:56:39.247Z,10.10
2018-12-08T16:59:06.715Z,10.10
2018-12-08T17:01:34.149Z,10.10
2018-12-08T17:04:01.643Z,10.10
2018-12-08T17:06:29.149Z,10.10
2018-12-08T17:08:56.636Z,10.10
2018-12-08T17:11:24.092Z,10.20
2018-12-08T17:13:51.548Z,10.20
2018-12-08T17:16:19.011Z,10.20
2018-12-08T17:18:46.484Z,10.30
2018-12-08T17:21:13.924Z,10.30
2018-12-08T17:23:41.504Z,10.30
2018-12-08T17:26:09.081Z,10.30
2018-12-08T17:28:36.599Z,10.30
2018-12-08T17:31:04.093Z,10.30
2018-12-08T17:33:31.661Z,10.30
2018-12-08T17:35:59.124Z,10.30
2018-12-08T17:38:26.579Z,10.40
2018-12-08T17:40:54.052Z,10.40
2018-12-08T17:43:21.507Z,10.40
2018-12-08T17:45:49.008Z,10.30
2018-12-08T17:48:16.532Z,10.30
2018-12-08T17:50:44.100Z,10.40
2018-12-08T17:53:11.667Z,10.40
2018-12-08T17:55:39.155Z,10.40
2018-12-08T17:58:06.776Z,10.50
2018-12-08T18:00:34.327Z,10.50
2018-12-08T18:03:02.835Z,10.50
2018-12-08T18:05:30.317Z,10.50
2018-12-08T18:07:57.748Z,10.40
2018-12-08T18:10:25.193Z,10.40
2018-12-08T18:12:52.671Z,10.30
2018-12-08T18:15:20.192Z,10.30
2018-12-08T18:17:47.704Z,10.30
2018-12-08T18:20:15.178Z,10.20
2018-12-08T18:22:42.734Z,10.20
2018-12-08T18:25:10.226Z,10.20
2018-12-08T18:27:37.692Z,10.20
2018-12-08T18:30:06.544Z,10.10
2018-12-08T18:32:34.178Z,10.10
2018-12-08T18:35:01.677Z,10.10
2018-12-08T18:37:29.144Z,10.10
2018-12-08T18:39:57.020Z,10.10
2018-12-08T18:42:24.577Z,10.10
2018-12-08T18:44:52.132Z,10.10
2018-12-08T18:47:19.764Z,10.10
2018-12-08T18:49:47.268Z,10.10
2018-12-08T18:52:14.724Z,10.10
2018-12-08T18:54:42.164Z,10.10
2018-12-08T18:57:09.725Z,10.10
2018-12-08T18:59:37.280Z,10.10
2018-12-08T19:02:04.776Z,10.10
2018-12-08T19:04:32.255Z,10.10
2018-12-08T19:06:59.797Z,10.10
2018-12-08T19:09:27.260Z,10.10
2018-12-08T19:11:54.688Z,10.10
2018-12-08T19:14:22.201Z,10.00
2018-12-08T19:16:49.760Z,10.00
2018-12-08T19:19:17.224Z,10.00
2018-12-08T19:21:44.676Z,10.00
2018-12-08T19:24:12.200Z,10.00
2018-12-08T19:26:39.696Z,10.00
2018-12-08T19:29:07.263Z,10.00
2018-12-08T19:31:34.823Z,10.00
2018-12-08T19:34:02.389Z,10.10
2018-12-08T19:36:29.845Z,10.10
2018-12-08T19:38:57.513Z,10.10
2018-12-08T19:41:25.012Z,10.10
2018-12-08T19:43:52.608Z,10.10
2018-12-08T19:46:20.068Z,10.20
2018-12-08T19:48:47.488Z,10.10
2018-12-08T19:51:15.094Z,10.00
2018-12-08T19:53:42.524Z,10.10
2018-12-08T19:56:10.020Z,10.10
2018-12-08T19:58:37.508Z,10.10
2018-12-08T20:01:05.085Z,10.00
2018-12-08T20:03:32.710Z,10.00
2018-12-08T20:06:00.216Z,10.00
2018-12-08T20:08:27.672Z,10.00
2018-12-08T20:10:55.231Z,10.00
2018-12-08T20:13:22.688Z,9.90
2018-12-08T20:15:50.220Z,10.00
2018-12-08T20:18:17.724Z,10.00
2018-12-08T20:20:45.209Z,10.00
2018-12-08T20:23:12.632Z,9.90
2018-12-08T20:25:40.067Z,10.00
2018-12-08T20:28:07.556Z,10.00
2018-12-08T20:30:35.024Z,10.00
2018-12-08T20:33:02.556Z,10.00
2018-12-08T20:35:30.053Z,10.00
2018-12-08T20:37:57.480Z,10.00
2018-12-08T20:40:25.076Z,10.00
2018-12-08T20:42:52.636Z,10.00
2018-12-08T20:45:20.094Z,10.00
2018-12-08T20:47:47.717Z,10.00
2018-12-08T20:50:15.227Z,9.90
2018-12-08T20:52:42.688Z,9.90
2018-12-08T20:55:10.148Z,9.90
2018-12-08T20:57:37.619Z,9.80
2018-12-08T21:00:05.377Z,9.80
2018-12-08T21:02:32.909Z,9.80
2018-12-08T21:05:00.404Z,9.80
2018-12-08T21:07:27.863Z,9.70
2018-12-08T21:09:55.336Z,9.70
2018-12-08T21:12:22.893Z,9.80
2018-12-08T21:14:50.323Z,9.80
2018-12-08T21:17:17.798Z,9.80
2018-12-08T21:19:45.289Z,9.80
2018-12-08T21:22:12.842Z,9.80
2018-12-08T21:24:40.473Z,9.90
2018-12-08T21:27:08.060Z,9.80
2018-12-08T21:29:35.459Z,9.90
2018-12-08T21:32:02.896Z,9.90
2018-12-08T21:34:30.457Z,9.90
2018-12-08T21:36:57.969Z,9.90
2018-12-08T21:39:26.496Z,9.90
2018-12-08T21:41:53.972Z,9.90
2018-12-08T21:44:21.629Z,9.90
2018-12-08T21:46:49.090Z,9.90
2018-12-08T21:49:16.567Z,9.90
2018-12-08T21:51:44.048Z,10.00
2018-12-08T21:54:11.575Z,10.00
2018-12-08T21:56:39.173Z,10.00
2018-12-08T21:59:06.604Z,10.10
2018-12-08T22:01:34.077Z,10.10
2018-12-08T22:04:01.595Z,10.10
2018-12-08T22:06:29.008Z,10.10
2018-12-08T22:08:56.436Z,10.20
2018-12-08T22:11:23.909Z,10.20
2018-12-08T22:13:51.377Z,10.20
2018-12-08T22:16:18.836Z,10.20
2018-12-08T22:18:46.363Z,10.30
2018-12-08T22:21:13.784Z,10.20
2018-12-08T22:23:41.221Z,10.30
2018-12-08T22:26:08.684Z,10.30
2018-12-08T22:28:36.210Z,10.40
2018-12-08T22:31:03.807Z,10.40
2018-12-08T22:33:31.316Z,10.40
2018-12-08T22:35:58.833Z,10.40
2018-12-08T22:38:26.292Z,10.50
2018-12-08T22:40:53.736Z,10.50
2018-12-08T22:43:21.316Z,10.50
2018-12-08T22:45:48.924Z,10.50
2018-12-08T22:48:16.413Z,10.50
2018-12-08T22:50:43.874Z,10.50
2018-12-08T22:53:11.397Z,10.60
2018-12-08T22:55:38.823Z,10.60
2018-12-08T22:58:06.397Z,10.60
2018-12-08T23:00:41.886Z,10.50
2018-12-08T23:03:09.710Z,10.50
2018-12-08T23:05:37.276Z,10.50
2018-12-08T23:08:04.836Z,10.50
2018-12-08T23:10:32.352Z,10.50
2018-12-08T23:12:59.952Z,10.50
2018-12-08T23:15:27.420Z,10.50
2018-12-08T23:17:54.888Z,10.50
2018-12-08T23:20:22.356Z,10.50
2018-12-08T23:22:49.825Z,10.50
2018-12-08T23:25:17.382Z,10.50
2018-12-08T23:27:44.944Z,10.50
2018-12-08T23:30:12.528Z,10.60
2018-12-08T23:32:40.064Z,10.50
2018-12-08T23:35:07.629Z,10.50
2018-12-08T23:37:35.203Z,10.50
2018-12-08T23:40:02.751Z,10.50
2018-12-08T23:42:30.216Z,10.50
2018-12-08T23:44:57.682Z,10.50
2018-12-08T23:47:25.117Z,10.50
2018-12-08T23:49:52.601Z,10.40
2018-12-08T23:52:20.104Z,10.20
2018-12-08T23:54:47.637Z,10.10
2018-12-08T23:57:15.192Z,10.00
2018-12-08T23:59:42.648Z,9.90
